sensor_id;sensor_type;location;lat;lon;timestamp;P1;durP1;ratioP1;P2;durP2;ratioP2
46363;SDS011;32071;49.036;9.344;2023-03-31T00:00:25;5.80;;;1.87;;
46363;SDS011;32071;49.036;9.344;2023-03-31T00:02:51;5.23;;;2.33;;
46363;SDS011;32071;49.036;9.344;2023-03-31T00:05:18;4.53;;;2.60;;
46363;SDS011;32071;49.036;9.344;2023-03-31T00:07:45;5.00;;;2.90;;
46363;SDS011;32071;49.036;9.344;2023-03-31T00:10:12;7.03;;;2.93;;
46363;SDS011;32071;49.036;9.344;2023-03-31T00:12:39;8.93;;;2.60;;
46363;SDS011;32071;49.036;9.344;2023-03-31T00:15:05;4.67;;;2.00;;
46363;SDS011;32071;49.036;9.344;2023-03-31T00:17:31;5.63;;;2.47;;
46363;SDS011;32071;49.036;9.344;2023-03-31T00:19:57;4.97;;;2.50;;
46363;SDS011;32071;49.036;9.344;2023-03-31T00:22:25;6.10;;;2.00;;
46363;SDS011;32071;49.036;9.344;2023-03-31T00:24:51;4.87;;;2.10;;
46363;SDS011;32071;49.036;9.344;2023-03-31T00:27:17;2.50;;;1.93;;
46363;SDS011;32071;49.036;9.344;2023-03-31T00:29:43;5.10;;;1.97;;
46363;SDS011;32071;49.036;9.344;2023-03-31T00:32:09;4.43;;;2.33;;
46363;SDS011;32071;49.036;9.344;2023-03-31T00:34:35;2.97;;;2.50;;
46363;SDS011;32071;49.036;9.344;2023-03-31T00:37:01;4.87;;;2.60;;
46363;SDS011;32071;49.036;9.344;2023-03-31T00:39:28;4.30;;;3.00;;
46363;SDS011;32071;49.036;9.344;2023-03-31T00:42:00;5.60;;;2.33;;
46363;SDS011;32071;49.036;9.344;2023-03-31T00:44:28;9.20;;;2.60;;
46363;SDS011;32071;49.036;9.344;2023-03-31T00:47:00;4.53;;;2.20;;
46363;SDS011;32071;49.036;9.344;2023-03-31T00:49:28;2.90;;;2.43;;
46363;SDS011;32071;49.036;9.344;2023-03-31T00:51:59;5.37;;;2.40;;
46363;SDS011;32071;49.036;9.344;2023-03-31T00:54:31;3.47;;;2.10;;
46363;SDS011;32071;49.036;9.344;2023-03-31T00:56:58;4.70;;;2.20;;
46363;SDS011;32071;49.036;9.344;2023-03-31T00:59:27;5.83;;;2.00;;
46363;SDS011;32071;49.036;9.344;2023-03-31T01:01:56;2.57;;;1.93;;
46363;SDS011;32071;49.036;9.344;2023-03-31T01:04:26;5.83;;;2.47;;
46363;SDS011;32071;49.036;9.344;2023-03-31T01:10:05;7.30;;;2.10;;
46363;SDS011;32071;49.036;9.344;2023-03-31T01:12:33;6.80;;;2.27;;
46363;SDS011;32071;49.036;9.344;2023-03-31T01:15:03;3.70;;;2.10;;
46363;SDS011;32071;49.036;9.344;2023-03-31T01:17:29;8.17;;;2.30;;
46363;SDS011;32071;49.036;9.344;2023-03-31T01:22:42;5.53;;;2.60;;
46363;SDS011;32071;49.036;9.344;2023-03-31T01:28:14;4.17;;;2.10;;
46363;SDS011;32071;49.036;9.344;2023-03-31T01:34:15;2.90;;;1.90;;
46363;SDS011;32071;49.036;9.344;2023-03-31T01:40:01;6.00;;;2.20;;
46363;SDS011;32071;49.036;9.344;2023-03-31T01:45:25;6.63;;;1.97;;
46363;SDS011;32071;49.036;9.344;2023-03-31T01:48:11;2.03;;;1.83;;
46363;SDS011;32071;49.036;9.344;2023-03-31T01:50:58;1.87;;;1.60;;
46363;SDS011;32071;49.036;9.344;2023-03-31T01:58:51;3.00;;;2.07;;
46363;SDS011;32071;49.036;9.344;2023-03-31T02:04:17;7.30;;;2.10;;
46363;SDS011;32071;49.036;9.344;2023-03-31T02:06:50;5.23;;;2.83;;
46363;SDS011;32071;49.036;9.344;2023-03-31T02:09:21;5.17;;;1.77;;
46363;SDS011;32071;49.036;9.344;2023-03-31T02:11:51;5.53;;;2.43;;
46363;SDS011;32071;49.036;9.344;2023-03-31T02:14:21;3.00;;;1.70;;
46363;SDS011;32071;49.036;9.344;2023-03-31T02:16:52;6.70;;;2.10;;
46363;SDS011;32071;49.036;9.344;2023-03-31T02:19:22;1.97;;;1.83;;
46363;SDS011;32071;49.036;9.344;2023-03-31T02:21:52;2.80;;;2.10;;
46363;SDS011;32071;49.036;9.344;2023-03-31T02:24:19;6.67;;;2.50;;
46363;SDS011;32071;49.036;9.344;2023-03-31T02:26:52;4.63;;;2.57;;
46363;SDS011;32071;49.036;9.344;2023-03-31T02:29:23;3.40;;;2.20;;
46363;SDS011;32071;49.036;9.344;2023-03-31T02:32:10;4.23;;;2.77;;
46363;SDS011;32071;49.036;9.344;2023-03-31T02:34:53;4.70;;;2.77;;
46363;SDS011;32071;49.036;9.344;2023-03-31T02:37:19;5.80;;;2.43;;
46363;SDS011;32071;49.036;9.344;2023-03-31T02:39:46;3.10;;;2.73;;
46363;SDS011;32071;49.036;9.344;2023-03-31T02:42:15;7.87;;;2.60;;
46363;SDS011;32071;49.036;9.344;2023-03-31T02:44:41;4.23;;;2.30;;
46363;SDS011;32071;49.036;9.344;2023-03-31T02:47:08;5.13;;;2.50;;
46363;SDS011;32071;49.036;9.344;2023-03-31T02:49:39;6.20;;;2.50;;
46363;SDS011;32071;49.036;9.344;2023-03-31T02:55:14;5.40;;;2.97;;
46363;SDS011;32071;49.036;9.344;2023-03-31T02:58:08;6.87;;;2.93;;
46363;SDS011;32071;49.036;9.344;2023-03-31T03:07:22;4.70;;;2.17;;
46363;SDS011;32071;49.036;9.344;2023-03-31T03:10:09;3.57;;;1.80;;
46363;SDS011;32071;49.036;9.344;2023-03-31T03:12:55;7.10;;;2.10;;
46363;SDS011;32071;49.036;9.344;2023-03-31T03:18:03;6.43;;;2.57;;
46363;SDS011;32071;49.036;9.344;2023-03-31T03:20:30;3.00;;;1.97;;
46363;SDS011;32071;49.036;9.344;2023-03-31T03:22:58;8.20;;;2.00;;
46363;SDS011;32071;49.036;9.344;2023-03-31T03:25:23;7.23;;;2.47;;
46363;SDS011;32071;49.036;9.344;2023-03-31T03:27:49;2.70;;;1.73;;
46363;SDS011;32071;49.036;9.344;2023-03-31T03:30:17;2.83;;;1.60;;
46363;SDS011;32071;49.036;9.344;2023-03-31T03:32:43;4.20;;;2.30;;
46363;SDS011;32071;49.036;9.344;2023-03-31T03:35:09;2.40;;;1.60;;
46363;SDS011;32071;49.036;9.344;2023-03-31T03:37:35;2.97;;;1.77;;
46363;SDS011;32071;49.036;9.344;2023-03-31T03:40:01;6.50;;;2.37;;
46363;SDS011;32071;49.036;9.344;2023-03-31T03:42:29;3.47;;;1.70;;
46363;SDS011;32071;49.036;9.344;2023-03-31T03:44:55;3.53;;;1.70;;
46363;SDS011;32071;49.036;9.344;2023-03-31T03:47:21;5.50;;;1.90;;
46363;SDS011;32071;49.036;9.344;2023-03-31T03:49:46;3.03;;;1.93;;
46363;SDS011;32071;49.036;9.344;2023-03-31T03:52:13;5.03;;;1.87;;
46363;SDS011;32071;49.036;9.344;2023-03-31T03:54:40;2.80;;;1.60;;
46363;SDS011;32071;49.036;9.344;2023-03-31T03:57:06;5.40;;;2.07;;
46363;SDS011;32071;49.036;9.344;2023-03-31T03:59:32;2.93;;;2.00;;
46363;SDS011;32071;49.036;9.344;2023-03-31T04:01:57;4.77;;;2.33;;
46363;SDS011;32071;49.036;9.344;2023-03-31T04:04:23;5.03;;;2.30;;
46363;SDS011;32071;49.036;9.344;2023-03-31T04:06:48;2.63;;;1.73;;
46363;SDS011;32071;49.036;9.344;2023-03-31T04:09:14;4.23;;;2.00;;
46363;SDS011;32071;49.036;9.344;2023-03-31T04:11:40;7.27;;;2.00;;
46363;SDS011;32071;49.036;9.344;2023-03-31T04:14:05;2.90;;;2.10;;
46363;SDS011;32071;49.036;9.344;2023-03-31T04:16:31;4.43;;;1.80;;
46363;SDS011;32071;49.036;9.344;2023-03-31T04:18:58;3.60;;;2.07;;
46363;SDS011;32071;49.036;9.344;2023-03-31T04:21:27;3.87;;;2.13;;
46363;SDS011;32071;49.036;9.344;2023-03-31T04:23:54;2.90;;;1.73;;
46363;SDS011;32071;49.036;9.344;2023-03-31T04:26:26;2.93;;;1.53;;
46363;SDS011;32071;49.036;9.344;2023-03-31T04:29:03;8.87;;;2.20;;
46363;SDS011;32071;49.036;9.344;2023-03-31T04:31:33;4.07;;;1.90;;
46363;SDS011;32071;49.036;9.344;2023-03-31T04:34:02;9.47;;;2.87;;
46363;SDS011;32071;49.036;9.344;2023-03-31T04:36:30;3.93;;;2.17;;
46363;SDS011;32071;49.036;9.344;2023-03-31T04:38:57;6.23;;;2.47;;
46363;SDS011;32071;49.036;9.344;2023-03-31T04:41:23;5.27;;;2.57;;
46363;SDS011;32071;49.036;9.344;2023-03-31T04:43:51;5.63;;;2.53;;
46363;SDS011;32071;49.036;9.344;2023-03-31T04:46:17;6.70;;;2.50;;
46363;SDS011;32071;49.036;9.344;2023-03-31T04:48:42;5.23;;;2.90;;
46363;SDS011;32071;49.036;9.344;2023-03-31T04:51:08;4.30;;;2.83;;
46363;SDS011;32071;49.036;9.344;2023-03-31T04:53:34;6.50;;;2.87;;
46363;SDS011;32071;49.036;9.344;2023-03-31T04:56:00;8.10;;;2.70;;
46363;SDS011;32071;49.036;9.344;2023-03-31T04:58:26;7.93;;;3.00;;
46363;SDS011;32071;49.036;9.344;2023-03-31T05:00:51;4.83;;;2.50;;
46363;SDS011;32071;49.036;9.344;2023-03-31T05:03:17;4.70;;;2.70;;
46363;SDS011;32071;49.036;9.344;2023-03-31T05:05:43;4.73;;;2.80;;
46363;SDS011;32071;49.036;9.344;2023-03-31T05:08:09;4.53;;;2.80;;
46363;SDS011;32071;49.036;9.344;2023-03-31T05:10:35;6.27;;;3.00;;
46363;SDS011;32071;49.036;9.344;2023-03-31T05:13:01;5.80;;;2.57;;
46363;SDS011;32071;49.036;9.344;2023-03-31T05:15:26;3.20;;;2.50;;
46363;SDS011;32071;49.036;9.344;2023-03-31T05:17:52;5.40;;;3.30;;
46363;SDS011;32071;49.036;9.344;2023-03-31T05:20:18;9.60;;;3.00;;
46363;SDS011;32071;49.036;9.344;2023-03-31T05:22:44;3.20;;;2.90;;
46363;SDS011;32071;49.036;9.344;2023-03-31T05:25:11;5.87;;;2.30;;
46363;SDS011;32071;49.036;9.344;2023-03-31T05:27:43;3.83;;;2.37;;
46363;SDS011;32071;49.036;9.344;2023-03-31T05:30:16;3.60;;;2.33;;
46363;SDS011;32071;49.036;9.344;2023-03-31T05:32:42;3.67;;;2.70;;
46363;SDS011;32071;49.036;9.344;2023-03-31T05:35:08;5.03;;;2.40;;
46363;SDS011;32071;49.036;9.344;2023-03-31T05:37:35;6.80;;;3.30;;
46363;SDS011;32071;49.036;9.344;2023-03-31T05:40:00;3.60;;;3.20;;
46363;SDS011;32071;49.036;9.344;2023-03-31T05:42:28;8.50;;;4.43;;
46363;SDS011;32071;49.036;9.344;2023-03-31T05:44:54;6.73;;;3.77;;
46363;SDS011;32071;49.036;9.344;2023-03-31T05:47:20;5.10;;;4.07;;
46363;SDS011;32071;49.036;9.344;2023-03-31T05:49:47;11.33;;;5.13;;
46363;SDS011;32071;49.036;9.344;2023-03-31T05:52:12;9.23;;;4.37;;
46363;SDS011;32071;49.036;9.344;2023-03-31T05:54:38;5.97;;;4.43;;
46363;SDS011;32071;49.036;9.344;2023-03-31T05:57:04;11.30;;;4.60;;
46363;SDS011;32071;49.036;9.344;2023-03-31T05:59:30;5.97;;;4.63;;
46363;SDS011;32071;49.036;9.344;2023-03-31T06:01:55;8.10;;;4.80;;
46363;SDS011;32071;49.036;9.344;2023-03-31T06:04:22;6.97;;;4.90;;
46363;SDS011;32071;49.036;9.344;2023-03-31T06:06:48;6.70;;;4.70;;
46363;SDS011;32071;49.036;9.344;2023-03-31T06:09:14;6.80;;;4.70;;
46363;SDS011;32071;49.036;9.344;2023-03-31T06:11:40;11.90;;;5.47;;
46363;SDS011;32071;49.036;9.344;2023-03-31T06:14:06;9.40;;;5.17;;
46363;SDS011;32071;49.036;9.344;2023-03-31T06:16:31;12.30;;;5.33;;
46363;SDS011;32071;49.036;9.344;2023-03-31T06:18:57;10.90;;;4.70;;
46363;SDS011;32071;49.036;9.344;2023-03-31T06:21:22;7.83;;;5.37;;
46363;SDS011;32071;49.036;9.344;2023-03-31T06:23:48;8.50;;;5.80;;
46363;SDS011;32071;49.036;9.344;2023-03-31T06:26:17;7.40;;;5.50;;
46363;SDS011;32071;49.036;9.344;2023-03-31T06:28:44;9.10;;;5.43;;
46363;SDS011;32071;49.036;9.344;2023-03-31T06:31:15;9.37;;;5.37;;
46363;SDS011;32071;49.036;9.344;2023-03-31T06:33:42;6.43;;;4.63;;
46363;SDS011;32071;49.036;9.344;2023-03-31T06:36:09;8.57;;;5.20;;
46363;SDS011;32071;49.036;9.344;2023-03-31T06:38:36;9.97;;;5.33;;
46363;SDS011;32071;49.036;9.344;2023-03-31T06:41:03;11.40;;;5.50;;
46363;SDS011;32071;49.036;9.344;2023-03-31T06:43:29;10.10;;;5.63;;
46363;SDS011;32071;49.036;9.344;2023-03-31T06:45:55;10.00;;;5.53;;
46363;SDS011;32071;49.036;9.344;2023-03-31T06:48:24;8.83;;;5.93;;
46363;SDS011;32071;49.036;9.344;2023-03-31T06:50:51;9.80;;;4.73;;
46363;SDS011;32071;49.036;9.344;2023-03-31T06:53:18;11.43;;;5.60;;
46363;SDS011;32071;49.036;9.344;2023-03-31T06:55:44;8.13;;;5.37;;
46363;SDS011;32071;49.036;9.344;2023-03-31T06:58:09;9.93;;;6.07;;
46363;SDS011;32071;49.036;9.344;2023-03-31T07:00:36;10.73;;;5.50;;
46363;SDS011;32071;49.036;9.344;2023-03-31T07:03:02;10.67;;;5.50;;
46363;SDS011;32071;49.036;9.344;2023-03-31T07:05:29;10.70;;;6.57;;
46363;SDS011;32071;49.036;9.344;2023-03-31T07:07:55;11.37;;;6.77;;
46363;SDS011;32071;49.036;9.344;2023-03-31T07:10:23;17.70;;;10.50;;
46363;SDS011;32071;49.036;9.344;2023-03-31T07:12:51;14.00;;;9.43;;
46363;SDS011;32071;49.036;9.344;2023-03-31T07:15:17;15.53;;;7.47;;
46363;SDS011;32071;49.036;9.344;2023-03-31T07:17:43;13.93;;;8.40;;
46363;SDS011;32071;49.036;9.344;2023-03-31T07:20:09;10.67;;;7.53;;
46363;SDS011;32071;49.036;9.344;2023-03-31T07:22:36;10.73;;;8.13;;
46363;SDS011;32071;49.036;9.344;2023-03-31T07:25:02;12.47;;;7.13;;
46363;SDS011;32071;49.036;9.344;2023-03-31T07:27:28;10.83;;;7.33;;
46363;SDS011;32071;49.036;9.344;2023-03-31T07:29:54;9.00;;;6.27;;
46363;SDS011;32071;49.036;9.344;2023-03-31T07:32:20;10.20;;;6.80;;
46363;SDS011;32071;49.036;9.344;2023-03-31T07:34:47;10.83;;;7.00;;
46363;SDS011;32071;49.036;9.344;2023-03-31T07:37:12;9.03;;;6.17;;
46363;SDS011;32071;49.036;9.344;2023-03-31T07:39:38;9.83;;;6.33;;
46363;SDS011;32071;49.036;9.344;2023-03-31T07:42:04;10.07;;;6.50;;
46363;SDS011;32071;49.036;9.344;2023-03-31T07:44:31;9.33;;;6.00;;
46363;SDS011;32071;49.036;9.344;2023-03-31T07:46:58;10.40;;;6.10;;
46363;SDS011;32071;49.036;9.344;2023-03-31T07:49:28;12.43;;;7.10;;
46363;SDS011;32071;49.036;9.344;2023-03-31T07:51:57;8.00;;;6.40;;
46363;SDS011;32071;49.036;9.344;2023-03-31T07:54:23;11.83;;;6.93;;
46363;SDS011;32071;49.036;9.344;2023-03-31T07:56:49;11.43;;;7.13;;
46363;SDS011;32071;49.036;9.344;2023-03-31T07:59:14;9.67;;;6.97;;
46363;SDS011;32071;49.036;9.344;2023-03-31T08:01:40;16.17;;;7.70;;
46363;SDS011;32071;49.036;9.344;2023-03-31T08:04:06;19.00;;;9.90;;
46363;SDS011;32071;49.036;9.344;2023-03-31T08:06:31;14.33;;;9.23;;
46363;SDS011;32071;49.036;9.344;2023-03-31T08:08:57;14.97;;;10.50;;
46363;SDS011;32071;49.036;9.344;2023-03-31T08:11:23;9.87;;;7.57;;
46363;SDS011;32071;49.036;9.344;2023-03-31T08:13:50;10.80;;;8.43;;
46363;SDS011;32071;49.036;9.344;2023-03-31T08:16:15;7.80;;;6.03;;
46363;SDS011;32071;49.036;9.344;2023-03-31T08:18:41;10.47;;;7.60;;
46363;SDS011;32071;49.036;9.344;2023-03-31T08:21:06;7.67;;;5.87;;
46363;SDS011;32071;49.036;9.344;2023-03-31T08:23:34;12.43;;;8.83;;
46363;SDS011;32071;49.036;9.344;2023-03-31T08:26:09;8.37;;;4.77;;
46363;SDS011;32071;49.036;9.344;2023-03-31T08:28:43;8.33;;;4.43;;
46363;SDS011;32071;49.036;9.344;2023-03-31T08:31:12;5.00;;;3.63;;
46363;SDS011;32071;49.036;9.344;2023-03-31T08:33:40;5.23;;;2.53;;
46363;SDS011;32071;49.036;9.344;2023-03-31T08:36:06;7.63;;;4.47;;
46363;SDS011;32071;49.036;9.344;2023-03-31T08:38:34;8.60;;;4.30;;
46363;SDS011;32071;49.036;9.344;2023-03-31T08:41:06;5.50;;;3.70;;
46363;SDS011;32071;49.036;9.344;2023-03-31T08:43:41;6.27;;;2.90;;
46363;SDS011;32071;49.036;9.344;2023-03-31T08:46:10;5.40;;;3.10;;
46363;SDS011;32071;49.036;9.344;2023-03-31T08:48:41;5.77;;;2.60;;
46363;SDS011;32071;49.036;9.344;2023-03-31T08:53:43;5.40;;;2.77;;
46363;SDS011;32071;49.036;9.344;2023-03-31T08:56:17;3.30;;;2.23;;
46363;SDS011;32071;49.036;9.344;2023-03-31T08:58:46;4.40;;;2.57;;
46363;SDS011;32071;49.036;9.344;2023-03-31T09:12:26;6.60;;;2.63;;
46363;SDS011;32071;49.036;9.344;2023-03-31T09:15:21;4.77;;;2.00;;
46363;SDS011;32071;49.036;9.344;2023-03-31T09:17:52;3.80;;;2.40;;
46363;SDS011;32071;49.036;9.344;2023-03-31T09:20:23;2.73;;;2.20;;
46363;SDS011;32071;49.036;9.344;2023-03-31T09:22:59;2.07;;;1.80;;
46363;SDS011;32071;49.036;9.344;2023-03-31T09:25:33;3.37;;;2.20;;
46363;SDS011;32071;49.036;9.344;2023-03-31T09:28:02;3.93;;;2.13;;
46363;SDS011;32071;49.036;9.344;2023-03-31T09:30:33;2.63;;;2.17;;
46363;SDS011;32071;49.036;9.344;2023-03-31T09:33:09;4.93;;;3.10;;
46363;SDS011;32071;49.036;9.344;2023-03-31T09:35:39;6.20;;;2.70;;
46363;SDS011;32071;49.036;9.344;2023-03-31T09:38:05;9.57;;;1.93;;
46363;SDS011;32071;49.036;9.344;2023-03-31T09:40:30;4.50;;;2.03;;
46363;SDS011;32071;49.036;9.344;2023-03-31T09:43:06;2.20;;;1.90;;
46363;SDS011;32071;49.036;9.344;2023-03-31T09:45:42;3.23;;;1.57;;
46363;SDS011;32071;49.036;9.344;2023-03-31T09:48:13;3.80;;;1.70;;
46363;SDS011;32071;49.036;9.344;2023-03-31T09:50:44;3.17;;;1.90;;
46363;SDS011;32071;49.036;9.344;2023-03-31T09:55:54;5.10;;;1.50;;
46363;SDS011;32071;49.036;9.344;2023-03-31T09:58:24;4.87;;;1.53;;
46363;SDS011;32071;49.036;9.344;2023-03-31T10:00:57;1.60;;;1.33;;
46363;SDS011;32071;49.036;9.344;2023-03-31T10:03:28;3.20;;;1.40;;
46363;SDS011;32071;49.036;9.344;2023-03-31T10:06:00;5.13;;;1.53;;
46363;SDS011;32071;49.036;9.344;2023-03-31T10:08:39;4.63;;;2.30;;
46363;SDS011;32071;49.036;9.344;2023-03-31T10:11:11;4.93;;;1.63;;
46363;SDS011;32071;49.036;9.344;2023-03-31T10:13:47;2.50;;;1.30;;
46363;SDS011;32071;49.036;9.344;2023-03-31T10:16:49;2.90;;;1.87;;
46363;SDS011;32071;49.036;9.344;2023-03-31T10:19:27;3.47;;;1.60;;
46363;SDS011;32071;49.036;9.344;2023-03-31T10:24:23;4.77;;;1.20;;
46363;SDS011;32071;49.036;9.344;2023-03-31T10:26:54;3.40;;;1.20;;
46363;SDS011;32071;49.036;9.344;2023-03-31T10:29:22;5.30;;;1.53;;
46363;SDS011;32071;49.036;9.344;2023-03-31T10:31:53;5.10;;;1.40;;
46363;SDS011;32071;49.036;9.344;2023-03-31T10:34:19;2.33;;;1.50;;
46363;SDS011;32071;49.036;9.344;2023-03-31T10:36:48;6.37;;;2.37;;
46363;SDS011;32071;49.036;9.344;2023-03-31T10:39:15;8.13;;;2.00;;
46363;SDS011;32071;49.036;9.344;2023-03-31T10:41:42;8.73;;;1.67;;
46363;SDS011;32071;49.036;9.344;2023-03-31T10:47:02;3.27;;;1.20;;
46363;SDS011;32071;49.036;9.344;2023-03-31T10:49:37;1.30;;;1.07;;
46363;SDS011;32071;49.036;9.344;2023-03-31T10:52:13;3.33;;;1.37;;
46363;SDS011;32071;49.036;9.344;2023-03-31T10:54:48;4.73;;;1.73;;
46363;SDS011;32071;49.036;9.344;2023-03-31T10:57:19;1.83;;;0.70;;
46363;SDS011;32071;49.036;9.344;2023-03-31T11:06:35;1.63;;;1.00;;
46363;SDS011;32071;49.036;9.344;2023-03-31T11:09:00;3.60;;;1.40;;
46363;SDS011;32071;49.036;9.344;2023-03-31T11:17:24;4.23;;;1.27;;
46363;SDS011;32071;49.036;9.344;2023-03-31T11:22:33;5.63;;;1.20;;
46363;SDS011;32071;49.036;9.344;2023-03-31T11:30:38;4.83;;;1.77;;
46363;SDS011;32071;49.036;9.344;2023-03-31T11:35:57;2.50;;;0.73;;
46363;SDS011;32071;49.036;9.344;2023-03-31T11:38:41;0.90;;;0.90;;
46363;SDS011;32071;49.036;9.344;2023-03-31T11:41:24;2.03;;;0.50;;
46363;SDS011;32071;49.036;9.344;2023-03-31T11:43:58;1.70;;;0.50;;
46363;SDS011;32071;49.036;9.344;2023-03-31T11:46:45;2.30;;;0.50;;
46363;SDS011;32071;49.036;9.344;2023-03-31T11:49:22;1.17;;;0.60;;
46363;SDS011;32071;49.036;9.344;2023-03-31T11:52:02;1.70;;;0.80;;
46363;SDS011;32071;49.036;9.344;2023-03-31T12:00:29;1.53;;;0.50;;
46363;SDS011;32071;49.036;9.344;2023-03-31T12:03:20;2.00;;;0.53;;
46363;SDS011;32071;49.036;9.344;2023-03-31T12:05:55;1.50;;;0.83;;
46363;SDS011;32071;49.036;9.344;2023-03-31T12:11:13;1.40;;;0.70;;
46363;SDS011;32071;49.036;9.344;2023-03-31T12:14:00;0.73;;;0.67;;
46363;SDS011;32071;49.036;9.344;2023-03-31T12:19:16;2.63;;;0.80;;
46363;SDS011;32071;49.036;9.344;2023-03-31T12:24:32;1.43;;;0.63;;
46363;SDS011;32071;49.036;9.344;2023-03-31T12:27:18;1.83;;;0.80;;
46363;SDS011;32071;49.036;9.344;2023-03-31T12:29:59;1.57;;;0.53;;
46363;SDS011;32071;49.036;9.344;2023-03-31T12:32:29;0.60;;;0.60;;
46363;SDS011;32071;49.036;9.344;2023-03-31T12:40:43;1.57;;;0.80;;
46363;SDS011;32071;49.036;9.344;2023-03-31T12:49:24;1.27;;;0.60;;
46363;SDS011;32071;49.036;9.344;2023-03-31T12:57:44;1.60;;;0.60;;
46363;SDS011;32071;49.036;9.344;2023-03-31T13:00:20;3.00;;;0.80;;
46363;SDS011;32071;49.036;9.344;2023-03-31T13:02:49;1.50;;;0.97;;
46363;SDS011;32071;49.036;9.344;2023-03-31T13:08:03;5.27;;;1.30;;
46363;SDS011;32071;49.036;9.344;2023-03-31T13:10:29;2.07;;;1.10;;
46363;SDS011;32071;49.036;9.344;2023-03-31T13:13:03;3.80;;;0.90;;
46363;SDS011;32071;49.036;9.344;2023-03-31T13:15:40;1.60;;;0.90;;
46363;SDS011;32071;49.036;9.344;2023-03-31T13:18:18;1.60;;;0.90;;
46363;SDS011;32071;49.036;9.344;2023-03-31T13:20:45;1.90;;;0.97;;
46363;SDS011;32071;49.036;9.344;2023-03-31T13:23:21;0.67;;;0.67;;
46363;SDS011;32071;49.036;9.344;2023-03-31T13:25:53;3.77;;;1.50;;
46363;SDS011;32071;49.036;9.344;2023-03-31T13:49:47;1.33;;;0.73;;
46363;SDS011;32071;49.036;9.344;2023-03-31T13:52:38;1.67;;;0.70;;
46363;SDS011;32071;49.036;9.344;2023-03-31T14:00:41;3.47;;;1.10;;
46363;SDS011;32071;49.036;9.344;2023-03-31T14:03:17;1.83;;;1.20;;
46363;SDS011;32071;49.036;9.344;2023-03-31T14:05:54;1.90;;;0.60;;
46363;SDS011;32071;49.036;9.344;2023-03-31T14:14:01;2.73;;;0.70;;
46363;SDS011;32071;49.036;9.344;2023-03-31T14:16:40;1.70;;;1.00;;
46363;SDS011;32071;49.036;9.344;2023-03-31T14:22:12;1.70;;;0.80;;
46363;SDS011;32071;49.036;9.344;2023-03-31T14:25:08;3.33;;;1.00;;
46363;SDS011;32071;49.036;9.344;2023-03-31T14:34:01;2.43;;;0.70;;
46363;SDS011;32071;49.036;9.344;2023-03-31T14:39:21;1.27;;;0.90;;
46363;SDS011;32071;49.036;9.344;2023-03-31T14:41:52;8.30;;;2.47;;
46363;SDS011;32071;49.036;9.344;2023-03-31T14:44:19;1.13;;;0.67;;
46363;SDS011;32071;49.036;9.344;2023-03-31T14:46:45;2.20;;;0.70;;
46363;SDS011;32071;49.036;9.344;2023-03-31T14:49:18;1.80;;;0.73;;
46363;SDS011;32071;49.036;9.344;2023-03-31T14:51:46;1.60;;;0.90;;
46363;SDS011;32071;49.036;9.344;2023-03-31T14:54:14;2.40;;;1.00;;
46363;SDS011;32071;49.036;9.344;2023-03-31T14:56:51;4.73;;;1.10;;
46363;SDS011;32071;49.036;9.344;2023-03-31T14:59:23;3.77;;;1.80;;
46363;SDS011;32071;49.036;9.344;2023-03-31T15:01:52;1.50;;;0.93;;
46363;SDS011;32071;49.036;9.344;2023-03-31T15:04:21;2.00;;;0.70;;
46363;SDS011;32071;49.036;9.344;2023-03-31T15:06:49;2.67;;;1.20;;
46363;SDS011;32071;49.036;9.344;2023-03-31T15:11:48;2.37;;;1.10;;
46363;SDS011;32071;49.036;9.344;2023-03-31T15:14:19;2.70;;;1.33;;
46363;SDS011;32071;49.036;9.344;2023-03-31T15:16:45;6.43;;;1.70;;
46363;SDS011;32071;49.036;9.344;2023-03-31T15:19:13;3.23;;;0.90;;
46363;SDS011;32071;49.036;9.344;2023-03-31T15:24:35;1.97;;;1.60;;
46363;SDS011;32071;49.036;9.344;2023-03-31T15:32:25;4.40;;;2.70;;
46363;SDS011;32071;49.036;9.344;2023-03-31T15:34:52;6.80;;;1.83;;
46363;SDS011;32071;49.036;9.344;2023-03-31T15:37:26;1.40;;;1.30;;
46363;SDS011;32071;49.036;9.344;2023-03-31T15:39:57;1.10;;;1.00;;
46363;SDS011;32071;49.036;9.344;2023-03-31T15:42:24;2.23;;;1.10;;
46363;SDS011;32071;49.036;9.344;2023-03-31T15:44:55;2.17;;;1.30;;
46363;SDS011;32071;49.036;9.344;2023-03-31T15:47:51;2.90;;;1.57;;
46363;SDS011;32071;49.036;9.344;2023-03-31T15:50:19;1.30;;;1.10;;
46363;SDS011;32071;49.036;9.344;2023-03-31T15:52:47;3.40;;;1.17;;
46363;SDS011;32071;49.036;9.344;2023-03-31T15:55:38;2.93;;;1.50;;
46363;SDS011;32071;49.036;9.344;2023-03-31T15:58:12;2.30;;;1.43;;
46363;SDS011;32071;49.036;9.344;2023-03-31T16:00:44;2.93;;;1.23;;
46363;SDS011;32071;49.036;9.344;2023-03-31T16:05:53;2.10;;;1.90;;
46363;SDS011;32071;49.036;9.344;2023-03-31T16:08:39;2.93;;;2.57;;
46363;SDS011;32071;49.036;9.344;2023-03-31T16:11:16;2.97;;;2.60;;
46363;SDS011;32071;49.036;9.344;2023-03-31T16:13:53;2.20;;;1.50;;
46363;SDS011;32071;49.036;9.344;2023-03-31T16:16:24;2.10;;;1.47;;
46363;SDS011;32071;49.036;9.344;2023-03-31T16:19:09;4.53;;;3.30;;
46363;SDS011;32071;49.036;9.344;2023-03-31T16:21:37;4.10;;;3.50;;
46363;SDS011;32071;49.036;9.344;2023-03-31T16:24:05;2.53;;;2.17;;
46363;SDS011;32071;49.036;9.344;2023-03-31T16:26:31;3.13;;;1.83;;
46363;SDS011;32071;49.036;9.344;2023-03-31T16:28:58;3.40;;;2.27;;
46363;SDS011;32071;49.036;9.344;2023-03-31T16:31:34;2.10;;;1.50;;
46363;SDS011;32071;49.036;9.344;2023-03-31T16:34:05;6.50;;;4.43;;
46363;SDS011;32071;49.036;9.344;2023-03-31T16:36:32;5.67;;;3.97;;
46363;SDS011;32071;49.036;9.344;2023-03-31T16:38:58;4.30;;;2.90;;
46363;SDS011;32071;49.036;9.344;2023-03-31T16:41:27;4.30;;;1.77;;
46363;SDS011;32071;49.036;9.344;2023-03-31T16:43:53;1.40;;;1.30;;
46363;SDS011;32071;49.036;9.344;2023-03-31T16:46:19;5.27;;;1.30;;
46363;SDS011;32071;49.036;9.344;2023-03-31T16:48:45;1.57;;;1.33;;
46363;SDS011;32071;49.036;9.344;2023-03-31T16:51:11;2.00;;;1.30;;
46363;SDS011;32071;49.036;9.344;2023-03-31T16:53:39;3.80;;;2.20;;
46363;SDS011;32071;49.036;9.344;2023-03-31T16:56:05;2.73;;;1.73;;
46363;SDS011;32071;49.036;9.344;2023-03-31T16:58:32;2.63;;;1.77;;
46363;SDS011;32071;49.036;9.344;2023-03-31T17:00:58;2.53;;;1.43;;
46363;SDS011;32071;49.036;9.344;2023-03-31T17:03:24;2.50;;;1.60;;
46363;SDS011;32071;49.036;9.344;2023-03-31T17:05:51;7.33;;;1.40;;
46363;SDS011;32071;49.036;9.344;2023-03-31T17:08:19;1.87;;;1.07;;
46363;SDS011;32071;49.036;9.344;2023-03-31T17:10:50;2.10;;;1.07;;
46363;SDS011;32071;49.036;9.344;2023-03-31T17:13:17;3.23;;;2.10;;
46363;SDS011;32071;49.036;9.344;2023-03-31T17:15:43;2.27;;;1.47;;
46363;SDS011;32071;49.036;9.344;2023-03-31T17:18:09;2.20;;;1.00;;
46363;SDS011;32071;49.036;9.344;2023-03-31T17:20:34;3.73;;;2.30;;
46363;SDS011;32071;49.036;9.344;2023-03-31T17:23:00;3.13;;;1.20;;
46363;SDS011;32071;49.036;9.344;2023-03-31T17:25:26;4.60;;;1.50;;
46363;SDS011;32071;49.036;9.344;2023-03-31T17:27:51;2.30;;;1.33;;
46363;SDS011;32071;49.036;9.344;2023-03-31T17:30:19;3.63;;;2.10;;
46363;SDS011;32071;49.036;9.344;2023-03-31T17:32:45;2.10;;;1.70;;
46363;SDS011;32071;49.036;9.344;2023-03-31T17:35:10;4.33;;;2.37;;
46363;SDS011;32071;49.036;9.344;2023-03-31T17:37:37;2.50;;;2.30;;
46363;SDS011;32071;49.036;9.344;2023-03-31T17:40:03;14.43;;;6.90;;
46363;SDS011;32071;49.036;9.344;2023-03-31T17:42:30;16.27;;;10.20;;
46363;SDS011;32071;49.036;9.344;2023-03-31T17:44:55;11.80;;;7.23;;
46363;SDS011;32071;49.036;9.344;2023-03-31T17:47:22;11.73;;;6.47;;
46363;SDS011;32071;49.036;9.344;2023-03-31T17:49:48;9.90;;;6.10;;
46363;SDS011;32071;49.036;9.344;2023-03-31T17:52:14;7.43;;;5.40;;
46363;SDS011;32071;49.036;9.344;2023-03-31T17:54:41;10.03;;;7.50;;
46363;SDS011;32071;49.036;9.344;2023-03-31T17:57:07;28.93;;;15.07;;